METAR Data
IDs: Format: Raw Decoded Include TAF

Data at: 0214 UTC 24 Sep 2018

KGCK 240154Z 15012KT 10SM CLR 19/11 A2991 RMK AO2 SLP113 T01890106
KGCK 240054Z 15010KT 10SM CLR 21/10 A2991 RMK AO2 SLP112 T02060100
KGCK 232354Z 16016KT 10SM CLR 25/07 A2991 RMK AO2 PK WND 15029/2310 SLP107 T02500072 10294 20250 55003
KGCK 232254Z 16015G26KT 10SM CLR 27/07 A2990 RMK AO2 PK WND 15029/2240 SLP103 T02720067
KGCK 232154Z 16020G30KT 10SM CLR 28/06 A2990 RMK AO2 PK WND 15030/2119 SLP101 T02830061
KGCK 232054Z 16017G30KT 10SM CLR 29/07 A2992 RMK AO2 PK WND 15030/2049 SLP108 T02890067 56025
KGCK 231954Z 16016G29KT 10SM CLR 29/07 A2994 RMK AO2 PK WND 15029/1954 SLP114 T02890067
KGCK 231854Z 17018G26KT 10SM CLR 28/07 A2997 RMK AO2 PK WND 15026/1853 SLP123 T02830072
KGCK 231754Z 18017G24KT 10SM CLR 27/08 A3000 RMK AO2 PK WND 19026/1718 SLP133 T02720078 10272 20078 58010
KGCK 231654Z 17014G26KT 10SM CLR 24/07 A3002 RMK AO2 PK WND 18027/1606 SLP143 T02440072
KGCK 231554Z 18021KT 10SM CLR 22/07 A3003 RMK AO2 PK WND 17027/1542 SLP148 T02170072
KGCK 231454Z 17013G20KT 10SM CLR 17/08 A3003 RMK AO2 SLP152 T01670083 55002
KGCK 231354Z 15010KT 10SM CLR 11/07 A3003 RMK AO2 SLP156 T01110072
KGCK 231254Z 16007KT 10SM CLR 09/06 A3003 RMK AO2 SLP156 T00890056
KGCK 231154Z AUTO 15007KT 10SM CLR 08/06 A3003 RMK AO2 SLP154 T00830056 10106 20072 58007
KGCK 231054Z AUTO 16006KT 10SM CLR 08/06 A3004 RMK AO2 SLP154 T00830061
KGCK 230954Z AUTO 17006KT 10SM CLR 08/06 A3006 RMK AO2 SLP159 T00780056
KGCK 230854Z AUTO 18007KT 10SM CLR 08/06 A3006 RMK AO2 SLP161 T00780056 56012
KGCK 230754Z AUTO 16005KT 10SM CLR 09/06 A3007 RMK AO2 SLP163 T00940061
KGCK 230654Z AUTO 15007KT 10SM CLR 10/07 A3008 RMK AO2 SLP168 T01000067
KGCK 230554Z AUTO 16006KT 10SM CLR 11/07 A3010 RMK AO2 SLP176 T01060067 10222 20106 402500067 56004
KGCK 230454Z AUTO 16007KT 10SM CLR 12/06 A3010 RMK AO2 SLP177 T01170061
KGCK 230354Z AUTO 15009KT 10SM CLR 13/07 A3010 RMK AO2 SLP179 T01280067
KGCK 230254Z AUTO 15010KT 10SM CLR 13/07 A3011 RMK AO2 SLP185 T01330067 52007
KGCK 230154Z 15009KT 10SM CLR 16/06 A3010 RMK AO2 SLP182 T01560061
KGCK 230054Z 15008KT 10SM CLR 17/07 A3009 RMK AO2 SLP180 T01720067
KGCK 222354Z 15010KT 10SM CLR 22/05 A3008 RMK AO2 SLP172 T02220050 10250 20194 56009
KGCK 222254Z 14013KT 10SM CLR 24/04 A3009 RMK AO2 SLP171 T02440039
KGCK 222154Z 14014G19KT 10SM CLR 24/04 A3010 RMK AO2 SLP174 T02440044
KGCK 222054Z 16008KT 10SM CLR 24/05 A3011 RMK AO2 SLP178 T02440050 58033
KGCK 221954Z 14004KT 10SM CLR 23/06 A3015 RMK AO2 SLP191 T02330061
KGCK 221854Z 15006KT 10SM CLR 22/07 A3019 RMK AO2 SLP204 T02170067
KGCK 221754Z 16006KT 10SM CLR 19/08 A3022 RMK AO2 SLP218 T01940078 10194 20067 58016
KGCK 221654Z 18006KT 10SM CLR 17/09 A3025 RMK AO2 SLP230 T01670094
KGCK 221554Z 16007KT 10SM CLR 15/09 A3026 RMK AO2 SLP236 T01500089
KGCK 221454Z 16009KT 10SM CLR 12/08 A3027 RMK AO2 SLP240 T01220083 58006